createdAt,value
2023-02-18T00:00:20.524Z,8.99
2023-02-18T00:02:48.001Z,9.95
2023-02-18T00:05:15.940Z,9.56
2023-02-18T00:07:43.158Z,9.71
2023-02-18T00:10:14.317Z,9.68
2023-02-18T00:12:42.263Z,9.66
2023-02-18T00:15:10.668Z,9.69
2023-02-18T00:17:38.017Z,9.20
2023-02-18T00:20:07.413Z,9.47
2023-02-18T00:22:34.946Z,9.29
2023-02-18T00:25:02.259Z,8.92
2023-02-18T00:27:30.944Z,8.95
2023-02-18T00:29:59.190Z,9.58
2023-02-18T00:32:26.446Z,9.41
2023-02-18T00:34:54.197Z,9.27
2023-02-18T00:37:21.377Z,8.79
2023-02-18T00:39:48.515Z,9.45
2023-02-18T00:42:15.656Z,9.46
2023-02-18T00:44:44.238Z,9.22
2023-02-18T00:47:11.600Z,8.88
2023-02-18T00:49:39.057Z,9.08
2023-02-18T00:52:06.231Z,9.53
2023-02-18T00:54:33.373Z,9.38
2023-02-18T00:57:00.494Z,9.09
2023-02-18T00:59:27.625Z,9.07
2023-02-18T01:01:56.300Z,8.93
2023-02-18T01:04:23.554Z,9.12
2023-02-18T01:06:50.696Z,9.69
2023-02-18T01:09:17.874Z,8.77
2023-02-18T01:11:45.215Z,8.92
2023-02-18T01:14:12.533Z,8.72
2023-02-18T01:16:39.670Z,8.62
2023-02-18T01:19:08.375Z,8.64
2023-02-18T01:21:35.496Z,8.57
2023-02-18T01:24:02.631Z,9.01
2023-02-18T01:26:29.929Z,9.01
2023-02-18T01:28:57.198Z,8.64
2023-02-18T01:31:24.329Z,8.61
2023-02-18T01:33:51.534Z,8.53
2023-02-18T01:36:20.194Z,8.38
2023-02-18T01:38:47.451Z,8.61
2023-02-18T01:41:14.673Z,8.52
2023-02-18T01:43:41.773Z,8.09
2023-02-18T01:46:16.271Z,8.27
2023-02-18T01:48:47.909Z,7.68
2023-02-18T01:51:24.489Z,7.89
2023-02-18T01:53:57.457Z,8.25
2023-02-18T01:56:31.107Z,8.00
2023-02-18T01:59:05.946Z,8.35
2023-02-18T02:01:36.028Z,7.77
2023-02-18T02:04:03.447Z,7.88
2023-02-18T02:06:34.471Z,7.56
2023-02-18T02:09:05.714Z,7.79
2023-02-18T02:12:13.626Z,7.75
2023-02-18T02:15:17.068Z,8.27
2023-02-18T02:17:57.672Z,8.02
2023-02-18T02:20:59.942Z,7.64
2023-02-18T02:24:15.307Z,7.69
2023-02-18T02:27:12.527Z,6.86
2023-02-18T02:30:26.235Z,7.15
2023-02-18T02:33:34.987Z,7.61
2023-02-18T02:36:14.151Z,7.92
2023-02-18T02:39:02.746Z,7.03
2023-02-18T02:41:46.848Z,6.70
2023-02-18T02:44:21.208Z,6.47
2023-02-18T02:46:52.012Z,6.31
2023-02-18T02:49:36.991Z,6.20
2023-02-18T02:52:12.092Z,6.19
2023-02-18T02:54:39.271Z,5.98
2023-02-18T02:57:29.251Z,5.75
2023-02-18T03:00:01.950Z,5.44
2023-02-18T03:02:46.920Z,4.96
2023-02-18T03:05:35.153Z,5.28
2023-02-18T03:08:23.313Z,5.09
2023-02-18T03:11:04.035Z,4.86
2023-02-18T03:13:50.179Z,4.94
2023-02-18T03:16:28.328Z,5.09
2023-02-18T03:19:10.656Z,4.95
2023-02-18T03:21:46.412Z,4.83
2023-02-18T03:24:24.534Z,4.86
2023-02-18T03:26:58.595Z,5.71
2023-02-18T03:29:30.955Z,4.98
2023-02-18T03:32:03.764Z,4.74
2023-02-18T03:34:37.159Z,4.62
2023-02-18T03:37:06.902Z,4.93
2023-02-18T03:39:42.095Z,5.23
2023-02-18T03:42:09.478Z,4.93
2023-02-18T03:44:38.996Z,4.98
2023-02-18T03:47:08.437Z,5.09
2023-02-18T03:49:35.774Z,5.22
2023-02-18T03:52:02.933Z,5.12
2023-02-18T03:54:29.973Z,5.20
2023-02-18T03:56:59.662Z,5.41
2023-02-18T03:59:26.809Z,5.32
2023-02-18T04:01:53.955Z,4.93
2023-02-18T04:04:21.199Z,4.75
2023-02-18T04:06:48.488Z,5.17
2023-02-18T04:09:15.702Z,5.37
2023-02-18T04:11:42.877Z,5.14
2023-02-18T04:14:14.927Z,5.32
2023-02-18T04:16:43.512Z,4.52
2023-02-18T04:19:11.706Z,4.95
2023-02-18T04:21:38.992Z,5.02
2023-02-18T04:24:06.672Z,4.71
2023-02-18T04:26:33.890Z,4.98
2023-02-18T04:29:01.046Z,5.15
2023-02-18T04:31:30.257Z,5.14
2023-02-18T04:34:00.014Z,4.87
2023-02-18T04:36:29.497Z,4.66
2023-02-18T04:38:56.667Z,4.79
2023-02-18T04:41:26.166Z,4.55
2023-02-18T04:43:53.306Z,4.92
2023-02-18T04:46:20.534Z,4.52
2023-02-18T04:48:49.767Z,4.49
2023-02-18T04:51:16.907Z,4.36
2023-02-18T04:53:44.146Z,4.70
2023-02-18T04:56:11.227Z,4.92
2023-02-18T04:58:38.566Z,4.73
2023-02-18T05:01:08.026Z,5.10
2023-02-18T05:03:35.229Z,4.89
2023-02-18T05:06:04.422Z,4.95
2023-02-18T05:08:31.519Z,4.96
2023-02-18T05:10:58.676Z,4.76
2023-02-18T05:13:25.775Z,4.74
2023-02-18T05:15:55.640Z,4.53
2023-02-18T05:18:22.894Z,4.50
2023-02-18T05:20:49.994Z,4.68
2023-02-18T05:23:20.893Z,4.40
2023-02-18T05:25:48.176Z,4.17
2023-02-18T05:28:15.363Z,4.20
2023-02-18T05:30:42.532Z,4.78
2023-02-18T05:33:12.181Z,4.30
2023-02-18T05:35:41.872Z,4.74
2023-02-18T05:38:08.954Z,4.42
2023-02-18T05:40:39.238Z,4.52
2023-02-18T05:43:09.793Z,4.44
2023-02-18T05:45:37.874Z,4.57
2023-02-18T05:48:08.607Z,4.80
2023-02-18T05:50:38.752Z,4.84
2023-02-18T05:53:08.520Z,4.90
2023-02-18T05:55:39.493Z,4.78
2023-02-18T05:58:06.630Z,4.92
2023-02-18T06:00:33.878Z,5.07
2023-02-18T06:03:01.122Z,4.95
2023-02-18T06:05:30.791Z,4.80
2023-02-18T06:07:57.953Z,4.62
2023-02-18T06:10:25.091Z,4.61
2023-02-18T06:12:55.995Z,4.62
2023-02-18T06:15:23.132Z,4.43
2023-02-18T06:17:50.252Z,4.68
2023-02-18T06:20:19.834Z,5.09
2023-02-18T06:22:47.088Z,4.80
2023-02-18T06:25:18.835Z,4.51
2023-02-18T06:27:47.799Z,4.69
2023-02-18T06:30:16.998Z,4.74
2023-02-18T06:32:47.030Z,4.63
2023-02-18T06:35:14.229Z,4.80
2023-02-18T06:37:41.431Z,4.87
2023-02-18T06:40:09.851Z,4.83
2023-02-18T06:42:39.327Z,4.83
2023-02-18T06:45:07.490Z,4.99
2023-02-18T06:47:36.568Z,4.59
2023-02-18T06:50:04.451Z,4.86
2023-02-18T06:52:31.686Z,5.23
2023-02-18T06:54:58.807Z,4.86
2023-02-18T06:57:28.367Z,5.11
2023-02-18T06:59:55.529Z,4.82
2023-02-18T07:02:22.646Z,4.56
2023-02-18T07:04:53.554Z,4.88
2023-02-18T07:07:20.729Z,4.86
2023-02-18T07:09:48.049Z,5.05
2023-02-18T07:12:15.195Z,4.79
2023-02-18T07:14:42.266Z,5.05
2023-02-18T07:17:11.767Z,5.88
2023-02-18T07:19:41.390Z,5.75
2023-02-18T07:22:10.547Z,4.82
2023-02-18T07:24:40.187Z,4.83
2023-02-18T07:27:07.425Z,5.21
2023-02-18T07:29:36.766Z,5.23
2023-02-18T07:32:06.632Z,5.19
2023-02-18T07:34:33.820Z,5.07
2023-02-18T07:37:00.989Z,4.88
2023-02-18T07:39:30.170Z,5.03
2023-02-18T07:41:57.366Z,5.46
2023-02-18T07:44:26.748Z,5.91
2023-02-18T07:46:53.927Z,6.07
2023-02-18T07:49:23.447Z,5.00
2023-02-18T07:51:51.627Z,5.25
2023-02-18T07:54:18.853Z,5.63
2023-02-18T07:56:47.539Z,5.36
2023-02-18T07:59:15.346Z,5.39
2023-02-18T08:01:44.126Z,6.23
2023-02-18T08:04:12.611Z,5.01
2023-02-18T08:06:42.397Z,5.06
2023-02-18T08:09:09.766Z,5.65
2023-02-18T08:11:36.869Z,4.99
2023-02-18T08:14:06.135Z,5.87
2023-02-18T08:16:34.046Z,5.35
2023-02-18T08:19:02.392Z,4.83
2023-02-18T08:21:30.431Z,7.43
2023-02-18T08:23:58.412Z,6.13
2023-02-18T08:26:26.993Z,6.08
2023-02-18T08:28:54.197Z,5.22
2023-02-18T08:31:24.849Z,5.44
2023-02-18T08:33:52.655Z,5.10
2023-02-18T08:36:20.478Z,5.29
2023-02-18T08:38:47.736Z,5.77
2023-02-18T08:41:15.406Z,6.26
2023-02-18T08:43:43.293Z,5.76
2023-02-18T08:46:16.098Z,5.67
2023-02-18T08:48:45.780Z,6.07
2023-02-18T08:51:15.561Z,6.20
2023-02-18T08:53:42.734Z,6.29
2023-02-18T08:56:10.533Z,6.15
2023-02-18T08:58:38.193Z,6.42
2023-02-18T09:01:07.839Z,6.55
2023-02-18T09:03:35.835Z,7.45
2023-02-18T09:06:05.473Z,7.91
2023-02-18T09:08:33.003Z,8.05
2023-02-18T09:11:02.878Z,8.93
2023-02-18T09:13:30.036Z,8.29
2023-02-18T09:15:58.576Z,8.35
2023-02-18T09:18:26.112Z,7.84
2023-02-18T09:20:57.252Z,8.17
2023-02-18T09:23:26.912Z,8.00
2023-02-18T09:25:54.111Z,7.23
2023-02-18T09:28:22.633Z,7.13
2023-02-18T09:30:50.167Z,7.32
2023-02-18T09:33:17.952Z,7.16
2023-02-18T09:35:47.146Z,6.42
2023-02-18T09:38:17.672Z,6.66
2023-02-18T09:40:51.735Z,6.60
2023-02-18T09:43:27.397Z,6.51
2023-02-18T09:45:55.408Z,6.84
2023-02-18T09:48:29.367Z,6.65
2023-02-18T09:50:57.253Z,6.48
2023-02-18T09:53:25.847Z,6.66
2023-02-18T09:55:57.199Z,6.12
2023-02-18T09:58:30.246Z,6.46
2023-02-18T10:01:06.535Z,6.03
2023-02-18T10:03:34.028Z,6.41
2023-02-18T10:06:04.890Z,6.59
2023-02-18T10:08:36.261Z,6.39
2023-02-18T10:11:11.142Z,6.45
2023-02-18T10:13:38.913Z,6.42
2023-02-18T10:16:07.375Z,6.26
2023-02-18T10:18:42.971Z,6.05
2023-02-18T10:21:14.339Z,5.91
2023-02-18T10:23:47.691Z,6.00
2023-02-18T10:26:18.291Z,5.89
2023-02-18T10:28:46.442Z,5.73
2023-02-18T10:31:20.607Z,6.21
2023-02-18T10:33:59.661Z,5.96
2023-02-18T10:36:35.953Z,6.33
2023-02-18T10:39:33.026Z,5.79
2023-02-18T10:42:15.098Z,5.78
2023-02-18T10:44:56.696Z,5.79
2023-02-18T10:47:37.894Z,5.40
2023-02-18T10:50:12.097Z,5.45
2023-02-18T10:52:43.244Z,5.40
2023-02-18T10:55:12.335Z,5.76
2023-02-18T10:57:49.201Z,5.18
2023-02-18T11:00:19.941Z,5.39
2023-02-18T11:03:00.798Z,6.03
2023-02-18T11:05:29.180Z,5.64
2023-02-18T11:07:58.796Z,5.65
2023-02-18T11:10:32.094Z,6.03
2023-02-18T11:13:05.831Z,5.57
2023-02-18T11:15:33.376Z,5.75
2023-02-18T11:18:13.873Z,5.57
2023-02-18T11:20:41.361Z,5.76
2023-02-18T11:23:19.750Z,5.77
2023-02-18T11:26:03.290Z,6.70
2023-02-18T11:28:42.885Z,5.61
2023-02-18T11:31:17.037Z,6.17
2023-02-18T11:33:50.573Z,6.51
2023-02-18T11:36:25.738Z,5.72
2023-02-18T11:38:56.509Z,5.58
2023-02-18T11:41:34.330Z,5.97
2023-02-18T11:44:07.494Z,6.22
2023-02-18T11:46:34.853Z,6.11
2023-02-18T11:49:21.909Z,5.68
2023-02-18T11:51:50.728Z,5.88
2023-02-18T11:54:27.611Z,6.30
2023-02-18T11:56:57.802Z,6.28
2023-02-18T11:59:27.898Z,6.08
2023-02-18T12:02:06.443Z,5.83
2023-02-18T12:04:41.715Z,5.71
2023-02-18T12:07:21.181Z,5.66
2023-02-18T12:09:54.981Z,5.33
2023-02-18T12:12:30.443Z,5.08
2023-02-18T12:15:00.817Z,5.40
2023-02-18T12:17:54.458Z,5.45
2023-02-18T12:20:50.067Z,5.79
2023-02-18T12:23:32.759Z,5.68
2023-02-18T12:26:11.240Z,5.26
2023-02-18T12:28:54.758Z,5.11
2023-02-18T12:31:48.571Z,5.49
2023-02-18T12:34:39.735Z,5.66
2023-02-18T12:37:29.095Z,5.96
2023-02-18T12:40:21.783Z,5.31
2023-02-18T12:43:03.013Z,5.19
2023-02-18T12:45:54.321Z,5.31
2023-02-18T12:48:49.121Z,5.40
2023-02-18T12:51:37.474Z,5.28
2023-02-18T12:54:31.563Z,5.30
2023-02-18T12:57:30.976Z,4.48
2023-02-18T13:00:42.571Z,5.02
2023-02-18T13:03:39.824Z,5.53
2023-02-18T13:06:21.113Z,5.08
2023-02-18T13:09:04.732Z,4.68
2023-02-18T13:11:44.015Z,4.71
2023-02-18T13:14:18.914Z,4.52
2023-02-18T13:16:51.449Z,4.23
2023-02-18T13:19:25.855Z,5.16
2023-02-18T13:21:57.017Z,5.68
2023-02-18T13:24:33.903Z,4.95
2023-02-18T13:27:14.093Z,4.71
2023-02-18T13:29:51.253Z,4.38
2023-02-18T13:32:29.894Z,4.49
2023-02-18T13:35:15.961Z,4.74
2023-02-18T13:38:02.313Z,5.27
2023-02-18T13:40:32.151Z,4.88
2023-02-18T13:43:21.373Z,4.95
2023-02-18T13:46:09.636Z,4.70
2023-02-18T13:48:44.598Z,4.42
2023-02-18T13:51:16.554Z,4.80
2023-02-18T13:53:50.813Z,5.33
2023-02-18T13:56:27.353Z,5.59
2023-02-18T13:59:01.722Z,6.21
2023-02-18T14:01:41.113Z,6.32
2023-02-18T14:04:49.823Z,5.95
2023-02-18T14:07:50.178Z,5.31
2023-02-18T14:10:35.144Z,5.27
2023-02-18T14:13:38.568Z,4.79
2023-02-18T14:16:06.697Z,5.01
2023-02-18T14:19:01.528Z,4.51
2023-02-18T14:21:41.408Z,3.91
2023-02-18T14:24:12.134Z,3.57
2023-02-18T14:26:47.269Z,3.45
2023-02-18T14:29:22.633Z,3.19
2023-02-18T14:31:54.512Z,3.35
2023-02-18T14:35:07.073Z,3.83
2023-02-18T14:38:20.634Z,3.19
2023-02-18T14:41:09.321Z,3.09
2023-02-18T14:44:12.991Z,3.70
2023-02-18T14:46:59.250Z,3.34
2023-02-18T14:49:39.693Z,3.50
2023-02-18T14:52:16.061Z,4.03
2023-02-18T14:54:44.354Z,4.23
2023-02-18T14:57:18.493Z,4.44
2023-02-18T14:59:47.501Z,4.08
2023-02-18T15:02:22.093Z,4.03
2023-02-18T15:04:50.040Z,3.97
2023-02-18T15:07:20.752Z,4.11
2023-02-18T15:09:49.976Z,4.33
2023-02-18T15:12:23.965Z,5.61
2023-02-18T15:14:57.774Z,4.69
2023-02-18T15:17:27.532Z,4.39
2023-02-18T15:19:59.195Z,4.25
2023-02-18T15:22:31.204Z,4.52
2023-02-18T15:24:58.974Z,4.34
2023-02-18T15:27:30.135Z,4.22
2023-02-18T15:30:03.755Z,4.31
2023-02-18T15:32:33.133Z,4.37
2023-02-18T15:35:02.692Z,4.84
2023-02-18T15:37:31.030Z,5.33
2023-02-18T15:39:58.462Z,5.59
2023-02-18T15:42:30.779Z,5.67
2023-02-18T15:45:02.533Z,5.73
2023-02-18T15:47:31.206Z,5.34
2023-02-18T15:50:02.347Z,5.73
2023-02-18T15:52:33.647Z,5.55
2023-02-18T15:55:04.487Z,5.53
2023-02-18T15:57:37.097Z,5.25
2023-02-18T16:00:16.470Z,5.36
2023-02-18T16:02:57.042Z,5.72
2023-02-18T16:05:28.072Z,5.48
2023-02-18T16:08:01.010Z,5.59
2023-02-18T16:10:46.090Z,5.29
2023-02-18T16:13:17.642Z,5.36
2023-02-18T16:15:48.627Z,5.66
2023-02-18T16:18:26.737Z,6.82
2023-02-18T16:20:56.888Z,7.58
2023-02-18T16:23:32.872Z,6.44
2023-02-18T16:26:17.473Z,7.14
2023-02-18T16:28:46.829Z,5.78
2023-02-18T16:31:14.060Z,5.33
2023-02-18T16:33:41.240Z,5.29
2023-02-18T16:36:13.432Z,5.72
2023-02-18T16:38:40.790Z,5.92
2023-02-18T16:41:11.191Z,12.01
2023-02-18T16:43:38.990Z,16.17
2023-02-18T16:46:13.695Z,6.34
2023-02-18T16:48:42.551Z,6.16
2023-02-18T16:51:15.510Z,6.39
2023-02-18T16:53:43.358Z,6.00
2023-02-18T16:56:15.988Z,5.95
2023-02-18T16:58:43.331Z,5.95
2023-02-18T17:01:23.717Z,5.45
2023-02-18T17:03:52.374Z,5.36
2023-02-18T17:06:19.707Z,5.95
2023-02-18T17:08:47.027Z,5.62
2023-02-18T17:11:23.114Z,3.27
2023-02-18T17:13:51.858Z,5.00
2023-02-18T17:16:22.070Z,5.28
2023-02-18T17:18:49.271Z,5.47
2023-02-18T17:21:20.813Z,5.46
2023-02-18T17:23:49.411Z,4.56
2023-02-18T17:26:20.369Z,5.71
2023-02-18T17:28:47.949Z,5.84
2023-02-18T17:31:19.692Z,5.69
2023-02-18T17:33:48.829Z,5.30
2023-02-18T17:36:15.968Z,5.77
2023-02-18T17:38:43.191Z,5.67
2023-02-18T17:41:12.634Z,5.66
2023-02-18T17:43:39.972Z,5.74
2023-02-18T17:46:12.820Z,5.66
2023-02-18T17:48:40.113Z,5.78
2023-02-18T17:51:13.012Z,5.95
2023-02-18T17:53:40.271Z,5.54
2023-02-18T17:56:12.031Z,5.50
2023-02-18T17:58:39.239Z,8.71
2023-02-18T18:01:06.508Z,7.03
2023-02-18T18:03:33.692Z,7.40
2023-02-18T18:06:00.950Z,6.95
2023-02-18T18:08:29.669Z,6.26
2023-02-18T18:11:01.132Z,6.84
2023-02-18T18:13:30.648Z,7.69
2023-02-18T18:15:58.290Z,7.22
2023-02-18T18:18:26.475Z,6.48
2023-02-18T18:20:58.088Z,5.89
2023-02-18T18:23:25.350Z,5.99
2023-02-18T18:25:55.781Z,6.42
2023-02-18T18:28:24.236Z,6.34
2023-02-18T18:30:54.070Z,6.56
2023-02-18T18:33:25.114Z,6.23
2023-02-18T18:35:55.043Z,6.92
2023-02-18T18:38:24.522Z,6.49
2023-02-18T18:40:55.015Z,6.65
2023-02-18T18:43:25.297Z,5.95
2023-02-18T18:45:54.000Z,21.55
2023-02-18T18:48:23.435Z,17.62
2023-02-18T18:50:53.426Z,8.76
2023-02-18T18:53:22.956Z,6.59
2023-02-18T18:55:52.716Z,6.63
2023-02-18T18:58:21.443Z,6.94
2023-02-18T19:00:52.426Z,6.77
2023-02-18T19:03:21.362Z,6.63
2023-02-18T19:05:49.359Z,7.15
2023-02-18T19:08:16.961Z,7.47
2023-02-18T19:10:47.914Z,7.31
2023-02-18T19:13:17.756Z,6.64
2023-02-18T19:15:48.045Z,7.67
2023-02-18T19:18:18.974Z,7.65
2023-02-18T19:20:47.733Z,7.55
2023-02-18T19:23:15.525Z,8.48
2023-02-18T19:25:42.815Z,8.34
2023-02-18T19:28:11.520Z,8.45
2023-02-18T19:30:39.103Z,7.92
2023-02-18T19:33:10.592Z,17.28
2023-02-18T19:35:40.301Z,9.49
2023-02-18T19:38:08.911Z,8.17
2023-02-18T19:40:36.732Z,7.86
2023-02-18T19:43:04.035Z,7.17
2023-02-18T19:45:31.747Z,7.20
2023-02-18T19:48:00.660Z,6.89
2023-02-18T19:50:30.155Z,7.06
2023-02-18T19:52:58.904Z,7.02
2023-02-18T19:55:28.857Z,8.11
2023-02-18T19:58:01.023Z,7.49
2023-02-18T20:00:31.297Z,7.37
2023-02-18T20:02:58.636Z,6.73
2023-02-18T20:05:26.773Z,6.98
2023-02-18T20:07:55.932Z,6.94
2023-02-18T20:10:23.124Z,6.73
2023-02-18T20:12:52.719Z,7.13
2023-02-18T20:15:21.639Z,7.40
2023-02-18T20:17:49.847Z,9.96
2023-02-18T20:20:19.029Z,8.83
2023-02-18T20:22:48.607Z,9.04
2023-02-18T20:25:18.381Z,8.46
2023-02-18T20:27:59.892Z,6.27
2023-02-18T20:30:30.965Z,7.99
2023-02-18T20:32:58.402Z,9.40
2023-02-18T20:35:25.781Z,10.23
2023-02-18T20:37:53.069Z,9.93
2023-02-18T20:40:23.644Z,9.44
2023-02-18T20:42:50.867Z,8.51
2023-02-18T20:45:20.781Z,9.85
2023-02-18T20:47:50.325Z,7.66
2023-02-18T20:50:17.701Z,8.11
2023-02-18T20:52:47.205Z,7.74
2023-02-18T20:55:16.581Z,8.91
2023-02-18T20:57:47.478Z,8.73
2023-02-18T21:00:16.480Z,8.79
2023-02-18T21:02:43.756Z,8.00
2023-02-18T21:05:13.163Z,6.88
2023-02-18T21:07:42.643Z,7.75
2023-02-18T21:10:09.844Z,7.12
2023-02-18T21:12:39.400Z,7.54
2023-02-18T21:15:09.328Z,7.63
2023-02-18T21:17:39.082Z,7.66
2023-02-18T21:20:08.133Z,8.39
2023-02-18T21:22:35.428Z,8.44
2023-02-18T21:25:02.644Z,8.16
2023-02-18T21:27:29.840Z,10.83
2023-02-18T21:29:59.073Z,10.42
2023-02-18T21:32:27.968Z,9.44
2023-02-18T21:34:55.278Z,7.64
2023-02-18T21:37:22.498Z,8.16
2023-02-18T21:39:49.658Z,8.83
2023-02-18T21:42:16.818Z,8.47
2023-02-18T21:44:46.698Z,8.65
2023-02-18T21:47:16.328Z,8.57
2023-02-18T21:49:45.756Z,8.75
2023-02-18T21:52:13.003Z,8.13
2023-02-18T21:54:42.557Z,8.78
2023-02-18T21:57:12.954Z,9.56
2023-02-18T21:59:43.414Z,9.65
2023-02-18T22:02:16.309Z,9.45
2023-02-18T22:04:46.723Z,9.01
2023-02-18T22:07:15.265Z,8.65
2023-02-18T22:09:47.363Z,8.92
2023-02-18T22:12:19.430Z,10.30
2023-02-18T22:14:49.142Z,9.53
2023-02-18T22:17:19.530Z,9.04
2023-02-18T22:19:48.722Z,14.09
2023-02-18T22:22:19.022Z,11.23
2023-02-18T22:24:46.317Z,10.26
2023-02-18T22:27:13.605Z,9.82
2023-02-18T22:29:43.580Z,8.96
2023-02-18T22:32:10.875Z,9.05
2023-02-18T22:34:38.213Z,9.38
2023-02-18T22:37:09.122Z,8.58
2023-02-18T22:39:36.169Z,8.61
2023-02-18T22:42:05.861Z,9.42
2023-02-18T22:44:35.458Z,9.16
2023-02-18T22:47:04.719Z,8.87
2023-02-18T22:49:36.560Z,9.12
2023-02-18T22:52:03.802Z,9.15
2023-02-18T22:54:33.161Z,9.00
2023-02-18T22:57:00.376Z,8.45
2023-02-18T22:59:29.783Z,8.32
2023-02-18T23:02:01.498Z,8.73
2023-02-18T23:04:30.898Z,8.52
2023-02-18T23:07:00.276Z,10.21
2023-02-18T23:09:29.667Z,11.04
2023-02-18T23:11:58.678Z,9.65
2023-02-18T23:14:27.582Z,8.44
2023-02-18T23:16:56.579Z,8.38
2023-02-18T23:19:26.892Z,8.31
2023-02-18T23:21:55.056Z,7.97
2023-02-18T23:24:23.277Z,8.61
2023-02-18T23:26:52.800Z,9.04
2023-02-18T23:29:23.781Z,9.08
2023-02-18T23:31:55.681Z,8.79
2023-02-18T23:34:22.956Z,8.32
2023-02-18T23:36:51.181Z,8.00
2023-02-18T23:39:21.184Z,7.76
2023-02-18T23:41:49.819Z,7.28
2023-02-18T23:44:19.599Z,6.90
2023-02-18T23:46:49.842Z,6.98
2023-02-18T23:49:20.270Z,7.27
2023-02-18T23:51:50.776Z,6.92
2023-02-18T23:54:19.384Z,6.86
2023-02-18T23:56:52.732Z,7.28
2023-02-18T23:59:19.973Z,6.71
